Terminal Aerodrome Forecast
Issued by NWS Sioux Falls, SD

Home | Current Version | Previous Version | Text Only | Print | Product List | Glossary Off
Versions: 1 2 3 4 5 6 7 8 9 10 11 12 13 14 15

085
FTUS43 KFSD 181138
TAFHON
TAF
KHON 181138Z 1812/1912 18012G19KT P6SM SCT045 OVC100
      TEMPO 1812/1815 -SHRA
     FM181600 20009KT P6SM SCT050 BKN080
     FM182200 19012KT P6SM VCTS SCT045 BKN110CB
     FM190300 36014KT 5SM SHRA VCTS OVC045CB
     FM190500 01013KT 6SM SHRA OVC045
     FM190900 01012G20KT P6SM -SHRA OVC015=

USA.gov is the U.S. government's official web portal to all federal, state and local government web resources and services.